Time;durP1;ratioP1;P1;durP2;ratioP2;P2;SDS_P1;SDS_P2;PMS_P1;PMS_P2;Temp;Humidity;BMP_temperature;BMP_pressure;BME280_temperature;BME280_humidity;BME280_pressure;Samples;Min_cycle;Max_cycle;Signal;HPM_P1;HPM_P2
2022/11/20 00:00:01;;;;;;;3.70;2.83;;;7.00;99.90;;;;;;5094624;28;20207;-90
2022/11/20 00:02:32;;;;;;;5.60;2.53;;;7.00;99.90;;;;;;5088047;28;20203;-90
2022/11/20 00:05:03;;;;;;;5.47;2.70;;;6.80;99.90;;;;;;5094670;28;20306;-91
2022/11/20 00:07:35;;;;;;;5.40;2.73;;;6.70;99.90;;;;;;5076528;28;21091;-89
2022/11/20 00:10:07;;;;;;;5.73;3.27;;;6.60;99.90;;;;;;5088963;28;20310;-90
2022/11/20 00:12:38;;;;;;;4.63;3.13;;;6.60;99.90;;;;;;5073456;28;20727;-91
2022/11/20 00:15:10;;;;;;;5.40;3.20;;;6.50;99.90;;;;;;5087525;28;20211;-92
2022/11/20 00:17:40;;;;;;;3.47;2.80;;;6.40;99.90;;;;;;5090354;28;20997;-90
2022/11/20 00:20:12;;;;;;;6.07;3.23;;;6.20;99.90;;;;;;5091885;28;20240;-92
2022/11/20 00:22:45;;;;;;;3.70;2.67;;;6.10;99.90;;;;;;5094522;28;20203;-91
2022/11/20 00:25:16;;;;;;;4.93;2.90;;;6.00;99.90;;;;;;5088632;28;20419;-91
2022/11/20 00:27:46;;;;;;;4.70;2.80;;;5.90;99.90;;;;;;5097440;28;20199;-90
2022/11/20 00:30:17;;;;;;;4.93;3.00;;;5.80;99.90;;;;;;5083298;28;20666;-90
2022/11/20 00:32:48;;;;;;;3.70;2.90;;;5.70;99.90;;;;;;5095757;28;20203;-91
2022/11/20 00:35:19;;;;;;;5.97;3.00;;;5.60;99.90;;;;;;5095152;28;20191;-92
2022/11/20 00:37:51;;;;;;;3.93;2.73;;;5.40;99.90;;;;;;5096440;28;20663;-91
2022/11/20 00:40:22;;;;;;;4.67;3.13;;;5.30;99.90;;;;;;5095521;28;20260;-90
2022/11/20 00:42:53;;;;;;;4.77;2.90;;;5.20;99.90;;;;;;5092694;28;20657;-91
2022/11/20 00:45:23;;;;;;;3.73;3.00;;;5.20;99.90;;;;;;5094719;28;20707;-91
2022/11/20 00:47:54;;;;;;;4.90;3.20;;;5.10;99.90;;;;;;5090371;28;20252;-90
2022/11/20 00:50:25;;;;;;;6.13;3.23;;;4.90;99.90;;;;;;5094208;28;20229;-90
2022/11/20 00:52:57;;;;;;;6.80;2.90;;;4.80;99.90;;;;;;5085910;28;20243;-90
2022/11/20 00:55:28;;;;;;;5.07;3.17;;;4.70;99.90;;;;;;5075698;28;20290;-90
2022/11/20 00:57:59;;;;;;;5.37;3.30;;;4.70;99.90;;;;;;5076677;28;20299;-90
2022/11/20 01:00:33;;;;;;;5.93;3.50;;;4.70;99.90;;;;;;5094835;28;20249;-89
2022/11/20 01:03:04;;;;;;;6.43;3.20;;;4.50;99.90;;;;;;5110224;28;20218;-90
2022/11/20 01:05:37;;;;;;;4.93;3.53;;;4.40;99.90;;;;;;5105092;28;20211;-89
2022/11/20 01:08:09;;;;;;;7.53;3.83;;;4.30;99.90;;;;;;5087932;28;20257;-89
2022/11/20 01:10:40;;;;;;;6.73;3.83;;;4.30;99.90;;;;;;5105204;28;20199;-90
2022/11/20 01:16:05;;;;;;;6.23;4.00;;;4.10;99.90;;;;;;5086206;28;20282;-91
2022/11/20 01:18:36;;;;;;;8.17;3.50;;;4.00;99.90;;;;;;5089644;28;20285;-92
2022/11/20 01:21:09;;;;;;;4.70;2.80;;;3.90;99.90;;;;;;5091647;28;20212;-92
2022/11/20 01:23:42;;;;;;;6.13;3.80;;;3.80;99.90;;;;;;5087042;28;20334;-93
2022/11/20 01:26:14;;;;;;;5.90;3.37;;;3.80;99.90;;;;;;5090709;28;20319;-93
2022/11/20 01:28:46;;;;;;;7.93;4.10;;;3.80;99.90;;;;;;5089242;28;20570;-93
2022/11/20 01:31:19;;;;;;;10.07;5.20;;;3.70;99.90;;;;;;5094834;28;20290;-93
2022/11/20 01:33:51;;;;;;;10.47;6.20;;;3.70;99.90;;;;;;5094955;28;20282;-94
2022/11/20 01:36:24;;;;;;;9.60;6.57;;;3.60;99.90;;;;;;5091774;28;20227;-93
2022/11/20 01:38:58;;;;;;;12.77;7.30;;;3.50;99.90;;;;;;5102627;28;20279;-93
2022/11/20 01:44:17;;;;;;;25.43;14.40;;;3.30;99.90;;;;;;5058570;28;20227;-92
2022/11/20 01:46:56;;;;;;;24.87;15.73;;;3.20;99.90;;;;;;5101227;28;20198;-93
2022/11/20 01:49:35;;;;;;;20.00;12.73;;;3.10;99.90;;;;;;5107198;28;20202;-94
2022/11/20 01:52:13;;;;;;;15.30;9.93;;;3.10;99.90;;;;;;5102817;28;20203;-94
2022/11/20 01:54:51;;;;;;;14.00;8.67;;;3.00;99.90;;;;;;5094019;28;20250;-93
2022/11/20 01:57:23;;;;;;;10.40;6.77;;;3.00;99.90;;;;;;5083848;28;20231;-94
2022/11/20 01:59:59;;;;;;;9.90;5.90;;;3.00;99.90;;;;;;5095084;28;20221;-94
2022/11/20 02:02:30;;;;;;;8.87;4.77;;;2.90;99.90;;;;;;5087059;28;20281;-94
2022/11/20 02:05:13;;;;;;;9.87;7.93;;;2.90;99.90;;;;;;5093698;28;20209;-93
2022/11/20 02:07:46;;;;;;;7.33;5.27;;;2.90;99.90;;;;;;5092774;28;20282;-93
2022/11/20 02:10:20;;;;;;;7.50;5.63;;;2.80;99.90;;;;;;5093261;28;20608;-93
2022/11/20 02:15:40;;;;;;;7.70;5.50;;;2.80;99.90;;;;;;5088214;28;20206;-93
2022/11/20 02:18:12;;;;;;;9.40;6.47;;;2.80;99.90;;;;;;5092222;28;20237;-95
2022/11/20 02:20:46;;;;;;;10.57;6.40;;;2.70;99.90;;;;;;5076739;28;20206;-93
2022/11/20 02:23:26;;;;;;;12.60;7.53;;;2.70;99.90;;;;;;5091597;28;20754;-94
2022/11/20 02:26:02;;;;;;;12.77;7.90;;;2.60;99.90;;;;;;5095576;28;20290;-94
2022/11/20 02:28:33;;;;;;;11.13;6.30;;;2.60;99.90;;;;;;5095451;28;20199;-93
2022/11/20 02:31:07;;;;;;;11.50;6.57;;;2.50;99.90;;;;;;5087497;28;20328;-94
2022/11/20 02:33:38;;;;;;;8.97;6.00;;;2.40;99.90;;;;;;5092569;28;20227;-93
2022/11/20 02:36:13;;;;;;;9.83;5.80;;;2.40;99.90;;;;;;5096579;28;20238;-95
2022/11/20 02:38:44;;;;;;;7.03;4.97;;;2.40;99.90;;;;;;5093866;28;20233;-94
2022/11/20 02:41:17;;;;;;;8.67;5.43;;;2.30;99.90;;;;;;5095258;28;20294;-93
2022/11/20 02:43:49;;;;;;;7.17;4.70;;;2.20;99.90;;;;;;5095511;28;20242;-94
2022/11/20 02:46:20;;;;;;;8.40;5.17;;;2.20;99.90;;;;;;5101204;28;20199;-95
2022/11/20 02:48:51;;;;;;;9.33;4.87;;;2.20;99.90;;;;;;5100671;28;20235;-95
2022/11/20 02:51:23;;;;;;;10.07;5.23;;;2.10;99.90;;;;;;5083862;28;20239;-93
2022/11/20 02:53:54;;;;;;;8.87;5.63;;;2.10;99.90;;;;;;5100644;28;20194;-94
2022/11/20 02:56:27;;;;;;;8.30;6.00;;;2.00;99.90;;;;;;5101346;28;20202;-94
2022/11/20 02:58:59;;;;;;;10.57;5.60;;;2.00;99.90;;;;;;5098523;28;20274;-93
2022/11/20 03:01:30;;;;;;;8.67;5.20;;;2.00;99.90;;;;;;5098862;28;20203;-93
2022/11/20 03:04:01;;;;;;;12.53;5.50;;;1.90;99.90;;;;;;5097960;28;20207;-94
2022/11/20 03:06:32;;;;;;;8.27;4.47;;;1.80;99.90;;;;;;5094289;28;20285;-95
2022/11/20 03:09:03;;;;;;;9.40;5.10;;;1.80;99.90;;;;;;5092099;28;20258;-94
2022/11/20 03:11:35;;;;;;;10.33;5.30;;;1.70;99.90;;;;;;5118947;28;20218;-95
2022/11/20 03:14:07;;;;;;;8.10;6.17;;;1.70;99.90;;;;;;5113141;28;20183;-95
2022/11/20 03:19:10;;;;;;;8.77;5.20;;;1.60;99.90;;;;;;4765212;28;10001685;-96
2022/11/20 03:21:41;;;;;;;8.87;5.20;;;1.70;99.90;;;;;;5133442;27;20194;-96
2022/11/20 03:24:12;;;;;;;7.33;4.37;;;1.70;99.90;;;;;;5128755;28;20225;-96
2022/11/20 03:26:44;;;;;;;6.53;4.23;;;1.70;99.90;;;;;;5112403;28;20198;-96
2022/11/20 03:29:15;;;;;;;8.00;5.10;;;1.70;99.90;;;;;;5130558;28;20241;-96
2022/11/20 03:31:47;;;;;;;12.40;6.10;;;1.70;99.90;;;;;;5115235;28;20203;-96
2022/11/20 03:34:19;;;;;;;9.83;5.93;;;1.70;99.90;;;;;;5115497;28;20217;-93
2022/11/20 03:36:50;;;;;;;10.33;6.40;;;1.70;99.90;;;;;;5112411;28;20206;-90
2022/11/20 03:39:22;;;;;;;12.17;7.27;;;1.70;99.90;;;;;;5114621;28;20194;-91
2022/11/20 03:41:55;;;;;;;10.70;6.97;;;1.70;99.90;;;;;;5114238;28;20225;-94
2022/11/20 03:44:26;;;;;;;10.23;7.00;;;1.60;99.90;;;;;;5110914;28;20206;-93
2022/11/20 03:46:57;;;;;;;10.17;7.00;;;1.60;99.90;;;;;;5104047;27;20262;-93
2022/11/20 03:49:29;;;;;;;10.53;6.73;;;1.60;99.90;;;;;;5100388;28;20202;-93
2022/11/20 03:51:59;;;;;;;10.13;6.87;;;1.60;99.90;;;;;;5103779;28;20281;-91
2022/11/20 03:54:32;;;;;;;10.47;6.50;;;1.60;99.90;;;;;;5113883;28;20615;-93
2022/11/20 03:57:05;;;;;;;8.20;5.73;;;1.60;99.90;;;;;;5114663;28;20210;-95
2022/11/20 03:59:35;;;;;;;8.67;6.27;;;1.70;99.90;;;;;;5102209;28;20237;-94
2022/11/20 04:02:07;;;;;;;13.47;7.77;;;1.60;99.90;;;;;;5106223;28;20230;-93
2022/11/20 04:04:39;;;;;;;11.97;7.87;;;1.50;99.90;;;;;;5109358;28;20542;-93
2022/11/20 04:07:11;;;;;;;10.47;7.17;;;1.50;99.90;;;;;;5114390;28;20241;-94
2022/11/20 04:09:43;;;;;;;11.57;6.93;;;1.40;99.90;;;;;;5113770;28;20252;-93
2022/11/20 04:12:16;;;;;;;13.77;7.50;;;1.50;99.90;;;;;;5113219;28;20257;-94
2022/11/20 04:14:47;;;;;;;11.40;8.03;;;1.40;99.90;;;;;;5116422;28;20252;-95
2022/11/20 04:17:18;;;;;;;14.13;8.57;;;1.30;99.90;;;;;;5110425;28;20384;-92
2022/11/20 04:19:49;;;;;;;11.57;7.83;;;1.30;99.90;;;;;;5116834;27;20281;-95
2022/11/20 04:22:20;;;;;;;14.87;9.57;;;1.30;99.90;;;;;;5101214;28;20217;-92
2022/11/20 04:24:52;;;;;;;15.37;11.33;;;1.20;99.90;;;;;;5107544;28;20290;-93
2022/11/20 04:27:24;;;;;;;14.83;9.57;;;1.20;99.90;;;;;;5115592;28;20289;-93
2022/11/20 04:29:56;;;;;;;12.10;8.50;;;1.10;99.90;;;;;;5111106;27;20228;-93
2022/11/20 04:32:27;;;;;;;12.50;7.23;;;1.10;99.90;;;;;;5110596;28;20666;-95
2022/11/20 04:34:59;;;;;;;11.10;7.43;;;1.10;99.90;;;;;;5113567;28;20586;-94
2022/11/20 04:37:30;;;;;;;18.73;10.17;;;1.10;99.90;;;;;;5109451;28;20321;-95
2022/11/20 04:40:01;;;;;;;27.07;14.87;;;1.10;99.90;;;;;;5107833;28;20547;-93
2022/11/20 04:42:35;;;;;;;42.77;22.17;;;1.10;99.90;;;;;;5108588;28;20715;-93
2022/11/20 04:45:07;;;;;;;47.87;25.13;;;1.10;99.90;;;;;;5115223;28;20205;-93
2022/11/20 04:47:38;;;;;;;36.07;21.13;;;1.10;99.90;;;;;;5113144;28;20269;-92
2022/11/20 04:50:10;;;;;;;32.80;16.63;;;1.10;99.90;;;;;;5105041;28;20391;-92
2022/11/20 04:52:41;;;;;;;21.07;10.27;;;1.10;99.90;;;;;;5108335;28;20262;-93
2022/11/20 04:55:13;;;;;;;17.10;9.47;;;1.00;99.90;;;;;;5105987;28;20190;-92
2022/11/20 04:57:46;;;;;;;18.17;11.10;;;1.00;99.90;;;;;;5108977;28;20313;-93
2022/11/20 05:00:19;;;;;;;21.83;13.73;;;1.00;99.90;;;;;;5108718;28;20261;-94
2022/11/20 05:02:51;;;;;;;21.97;14.77;;;1.00;99.90;;;;;;5111469;28;20206;-90
2022/11/20 05:05:22;;;;;;;23.70;14.20;;;1.00;99.90;;;;;;5114411;28;20241;-93
2022/11/20 05:07:54;;;;;;;16.20;10.93;;;1.00;99.90;;;;;;5112272;28;20287;-93
2022/11/20 05:10:26;;;;;;;15.13;9.50;;;0.90;99.90;;;;;;5112255;28;20205;-93
2022/11/20 05:13:00;;;;;;;12.90;8.20;;;0.90;99.90;;;;;;5108249;28;20286;-90
2022/11/20 05:15:32;;;;;;;12.53;8.37;;;0.90;99.90;;;;;;5099423;28;20206;-91
2022/11/20 05:18:04;;;;;;;13.30;9.90;;;0.90;99.90;;;;;;5095685;28;20537;-96
2022/11/20 05:20:36;;;;;;;13.60;8.60;;;0.80;99.90;;;;;;5112391;28;20711;-94
2022/11/20 05:23:07;;;;;;;15.70;8.87;;;0.80;99.90;;;;;;5108112;28;20644;-90
2022/11/20 05:25:39;;;;;;;17.33;9.90;;;0.90;99.90;;;;;;5124841;27;20190;-93
2022/11/20 05:28:12;;;;;;;12.13;8.07;;;0.80;99.90;;;;;;5122659;28;20223;-91
2022/11/20 05:30:44;;;;;;;15.13;8.67;;;0.80;99.90;;;;;;5122856;28;20195;-92
2022/11/20 05:33:15;;;;;;;16.20;9.33;;;0.80;99.90;;;;;;5121707;28;20692;-92
2022/11/20 05:35:48;;;;;;;17.30;10.30;;;0.80;99.90;;;;;;5121538;28;20217;-92
2022/11/20 05:38:19;;;;;;;15.07;9.70;;;0.80;99.90;;;;;;5116916;28;20222;-93
2022/11/20 05:40:50;;;;;;;15.90;9.93;;;0.80;99.90;;;;;;5115592;28;20233;-94
2022/11/20 05:43:24;;;;;;;15.30;8.93;;;0.80;99.90;;;;;;5114270;28;20313;-93
2022/11/20 05:45:56;;;;;;;13.57;8.10;;;0.80;99.90;;;;;;5104579;28;20241;-91
2022/11/20 05:48:27;;;;;;;10.73;7.63;;;0.80;99.90;;;;;;5110099;28;20209;-92
2022/11/20 05:51:00;;;;;;;10.87;7.27;;;0.70;99.90;;;;;;5114249;28;20217;-92
2022/11/20 05:53:31;;;;;;;9.53;6.20;;;0.70;99.90;;;;;;5102001;28;20254;-93
2022/11/20 05:56:04;;;;;;;10.63;6.40;;;0.70;99.90;;;;;;5107803;28;20290;-94
2022/11/20 05:58:38;;;;;;;8.63;5.37;;;0.70;99.90;;;;;;5107211;28;20231;-94
2022/11/20 06:01:12;;;;;;;8.17;5.50;;;0.70;99.90;;;;;;5109847;28;20214;-92
2022/11/20 06:03:45;;;;;;;9.17;5.20;;;0.70;99.90;;;;;;5111679;28;20689;-94
2022/11/20 06:06:17;;;;;;;8.63;5.33;;;0.70;99.90;;;;;;5112478;28;20749;-92
2022/11/20 06:08:49;;;;;;;11.03;5.70;;;0.70;99.90;;;;;;5105044;28;20215;-94
2022/11/20 06:11:21;;;;;;;9.90;5.37;;;0.70;99.90;;;;;;5108839;28;20212;-93
2022/11/20 06:13:55;;;;;;;9.30;5.53;;;0.70;99.90;;;;;;5115868;28;20237;-94
2022/11/20 06:16:26;;;;;;;11.90;6.20;;;0.70;99.90;;;;;;5114293;28;20202;-93
2022/11/20 06:18:57;;;;;;;10.43;6.27;;;0.60;99.90;;;;;;5109949;28;20233;-93
2022/11/20 06:21:28;;;;;;;13.47;7.57;;;0.60;99.90;;;;;;5118423;28;20217;-93
2022/11/20 06:24:00;;;;;;;14.27;8.13;;;0.70;99.90;;;;;;5113588;28;20277;-93
2022/11/20 06:26:32;;;;;;;13.00;8.60;;;0.60;99.90;;;;;;5103220;28;20207;-94
2022/11/20 06:29:05;;;;;;;15.70;9.43;;;0.60;99.90;;;;;;5108325;28;20214;-94
2022/11/20 06:31:37;;;;;;;15.03;9.20;;;0.50;99.90;;;;;;5113851;28;20255;-92
2022/11/20 06:34:09;;;;;;;15.03;10.03;;;0.50;99.90;;;;;;5109520;28;20206;-93
2022/11/20 06:36:41;;;;;;;14.43;9.43;;;0.50;99.90;;;;;;5108399;28;20230;-93
2022/11/20 06:39:13;;;;;;;18.27;10.10;;;0.50;99.90;;;;;;5101372;28;20269;-94
2022/11/20 06:41:44;;;;;;;15.10;10.70;;;0.50;99.90;;;;;;5102410;28;20289;-93
2022/11/20 06:44:18;;;;;;;15.33;10.23;;;0.50;99.90;;;;;;5091850;28;20202;-93
2022/11/20 06:46:49;;;;;;;16.37;10.77;;;0.50;99.90;;;;;;5112987;28;20274;-93
2022/11/20 06:49:21;;;;;;;13.23;9.47;;;0.50;99.90;;;;;;5112280;28;20237;-93
2022/11/20 06:51:53;;;;;;;16.27;9.30;;;0.50;99.90;;;;;;5112905;28;20284;-93
2022/11/20 06:54:24;;;;;;;17.20;10.50;;;0.50;99.90;;;;;;5111741;28;20197;-93
2022/11/20 06:56:56;;;;;;;14.37;8.67;;;0.50;99.90;;;;;;5106524;28;20236;-94
2022/11/20 06:59:29;;;;;;;13.00;7.63;;;0.50;99.90;;;;;;5113483;28;20286;-94
2022/11/20 07:02:02;;;;;;;12.83;7.90;;;0.50;99.90;;;;;;5111165;28;20315;-94
2022/11/20 07:04:33;;;;;;;12.43;8.00;;;0.40;99.90;;;;;;5101554;28;20253;-92
2022/11/20 07:07:04;;;;;;;11.97;7.37;;;0.40;99.90;;;;;;5113093;28;20293;-93
2022/11/20 07:09:36;;;;;;;8.30;6.13;;;0.40;99.90;;;;;;5112534;28;20215;-94
2022/11/20 07:12:07;;;;;;;10.87;6.73;;;0.40;99.90;;;;;;5103238;28;20234;-92
2022/11/20 07:14:41;;;;;;;10.63;7.07;;;0.30;99.90;;;;;;5107028;28;20249;-92
2022/11/20 07:17:13;;;;;;;12.23;7.20;;;0.20;99.90;;;;;;5118979;28;20269;-94
2022/11/20 07:19:44;;;;;;;10.73;7.07;;;0.10;99.90;;;;;;5112276;28;20318;-93
2022/11/20 07:22:15;;;;;;;12.37;6.97;;;0.10;99.90;;;;;;5111188;28;20806;-93
2022/11/20 07:24:46;;;;;;;8.27;6.30;;;0.10;99.90;;;;;;5094800;28;20233;-93
2022/11/20 07:27:16;;;;;;;11.10;6.67;;;0.10;99.90;;;;;;5112652;28;20251;-95
2022/11/20 07:29:49;;;;;;;9.07;6.53;;;0.00;99.90;;;;;;5102821;28;20217;-94
2022/11/20 07:32:20;;;;;;;10.90;6.90;;;0.00;99.90;;;;;;5109041;28;20206;-95
2022/11/20 07:34:52;;;;;;;10.43;5.97;;;0.00;99.90;;;;;;5114365;28;20289;-94
2022/11/20 07:37:23;;;;;;;10.47;6.30;;;0.00;99.90;;;;;;5116176;28;20251;-93
2022/11/20 07:39:54;;;;;;;8.73;5.70;;;0.00;99.90;;;;;;5112072;28;20285;-96
2022/11/20 07:42:26;;;;;;;8.60;5.57;;;-0.10;99.90;;;;;;4764854;28;9999655;-96
2022/11/20 07:45:00;;;;;;;10.90;7.50;;;-0.10;99.90;;;;;;5129171;27;20205;-93
2022/11/20 07:47:37;;;;;;;12.23;9.70;;;-0.10;99.90;;;;;;5124349;28;20279;-95
2022/11/20 07:50:09;;;;;;;11.33;8.20;;;-0.10;99.90;;;;;;5126112;28;20276;-93
2022/11/20 07:52:41;;;;;;;10.87;7.63;;;-0.10;99.90;;;;;;5098618;28;20289;-93
2022/11/20 07:55:13;;;;;;;9.63;6.60;;;-0.10;99.90;;;;;;5116161;28;21088;-92
2022/11/20 07:57:44;;;;;;;11.13;6.07;;;-0.10;99.90;;;;;;5112296;28;20234;-93
2022/11/20 08:00:20;;;;;;;8.40;5.93;;;-0.10;99.90;;;;;;5111667;28;20642;-93
2022/11/20 08:02:51;;;;;;;7.97;5.93;;;-0.10;99.90;;;;;;5115490;28;20273;-94
2022/11/20 08:05:23;;;;;;;8.47;5.40;;;-0.10;99.90;;;;;;5106264;28;20245;-95
2022/11/20 08:07:55;;;;;;;9.13;5.43;;;-0.20;99.90;;;;;;5116471;28;20265;-93
2022/11/20 08:10:26;;;;;;;7.67;5.67;;;-0.20;99.90;;;;;;5119019;28;20205;-92
2022/11/20 08:15:49;;;;;;;7.37;5.70;;;-0.20;99.90;;;;;;5091855;28;20619;-94
2022/11/20 08:18:21;;;;;;;8.80;6.40;;;-0.30;99.90;;;;;;5114379;28;20240;-93
2022/11/20 08:21:04;;;;;;;9.43;5.97;;;-0.30;99.90;;;;;;5114506;28;20240;-94
2022/11/20 08:23:36;;;;;;;11.17;7.90;;;-0.30;99.90;;;;;;5100813;28;20623;-93
2022/11/20 08:26:08;;;;;;;11.20;7.70;;;-0.40;99.90;;;;;;5111929;28;20289;-93
2022/11/20 08:28:39;;;;;;;9.67;6.57;;;-0.40;99.90;;;;;;5113812;28;20296;-93
2022/11/20 08:31:13;;;;;;;10.17;6.87;;;-0.40;99.90;;;;;;5109193;28;20294;-92
2022/11/20 08:33:44;;;;;;;9.80;6.17;;;-0.40;99.90;;;;;;5106269;28;20226;-92
2022/11/20 08:36:15;;;;;;;7.57;5.33;;;-0.30;99.90;;;;;;5101439;28;20287;-92
2022/11/20 08:38:51;;;;;;;9.37;5.83;;;-0.30;99.90;;;;;;5105361;28;20296;-93
2022/11/20 08:41:30;;;;;;;8.93;5.37;;;-0.30;99.90;;;;;;5104782;28;20358;-93
2022/11/20 08:44:04;;;;;;;9.37;5.37;;;-0.30;99.90;;;;;;5113361;28;20235;-92
2022/11/20 08:46:39;;;;;;;7.37;5.17;;;-0.30;99.90;;;;;;5116958;28;20205;-93
2022/11/20 08:49:13;;;;;;;10.53;6.13;;;-0.30;99.90;;;;;;5105845;28;21023;-93
2022/11/20 08:51:44;;;;;;;10.23;6.47;;;-0.30;99.90;;;;;;5114731;28;20218;-93
2022/11/20 08:54:19;;;;;;;9.23;5.97;;;-0.20;99.90;;;;;;5104425;28;20256;-94
2022/11/20 08:56:51;;;;;;;9.77;6.50;;;-0.20;99.90;;;;;;5113760;28;20206;-93
2022/11/20 08:59:22;;;;;;;8.30;6.10;;;-0.30;99.90;;;;;;5104546;27;20289;-92
2022/11/20 09:02:17;;;;;;;10.30;5.77;;;-0.30;99.90;;;;;;5102101;28;20847;-93
2022/11/20 09:04:48;;;;;;;6.90;4.90;;;-0.30;99.90;;;;;;5119990;28;20221;-93
2022/11/20 09:07:19;;;;;;;8.83;5.40;;;-0.30;99.90;;;;;;5089970;28;20205;-94
2022/11/20 09:09:50;;;;;;;7.13;5.10;;;-0.30;99.90;;;;;;5113379;28;20288;-94
2022/11/20 09:12:41;;;;;;;7.03;4.43;;;-0.30;99.90;;;;;;5105626;28;20667;-95
2022/11/20 09:15:13;;;;;;;7.73;4.90;;;-0.30;99.90;;;;;;5100455;28;20202;-93
2022/11/20 09:17:53;;;;;;;8.83;5.23;;;-0.40;99.90;;;;;;5103597;28;20298;-93
2022/11/20 09:20:24;;;;;;;8.00;5.30;;;-0.40;99.90;;;;;;5104413;28;20311;-93
2022/11/20 09:22:55;;;;;;;9.00;5.20;;;-0.40;99.90;;;;;;5113782;28;20294;-94
2022/11/20 09:25:27;;;;;;;10.30;5.13;;;-0.40;99.90;;;;;;5113020;28;20254;-93
2022/11/20 09:27:58;;;;;;;8.47;5.33;;;-0.40;99.90;;;;;;5101181;28;20229;-93
2022/11/20 09:30:31;;;;;;;8.30;5.30;;;-0.40;99.90;;;;;;5095731;28;20289;-94
2022/11/20 09:33:07;;;;;;;9.03;5.90;;;-0.50;99.90;;;;;;5105400;28;20240;-92
2022/11/20 09:35:38;;;;;;;10.37;6.37;;;-0.40;99.90;;;;;;5106790;28;20295;-93
2022/11/20 09:38:10;;;;;;;9.23;5.33;;;-0.40;99.90;;;;;;5112460;28;20265;-92
2022/11/20 09:40:48;;;;;;;8.87;5.10;;;-0.40;99.90;;;;;;5109451;28;20264;-93
2022/11/20 09:43:24;;;;;;;9.13;5.30;;;-0.40;99.90;;;;;;5111896;28;20213;-95
2022/11/20 09:46:09;;;;;;;7.00;5.10;;;-0.40;99.90;;;;;;5101784;28;20240;-93
2022/11/20 09:49:06;;;;;;;9.17;5.30;;;-0.40;99.90;;;;;;5108640;28;20285;-93
2022/11/20 09:51:48;;;;;;;9.40;5.73;;;-0.40;99.90;;;;;;5113002;28;20270;-92
2022/11/20 09:54:20;;;;;;;7.67;5.23;;;-0.40;99.90;;;;;;5108365;28;20298;-93
2022/11/20 09:56:56;;;;;;;7.10;4.70;;;-0.40;99.90;;;;;;5133708;28;20208;-93
2022/11/20 09:59:39;;;;;;;7.80;5.07;;;-0.40;99.90;;;;;;5116271;28;20244;-92
2022/11/20 10:02:20;;;;;;;7.63;5.20;;;-0.40;99.90;;;;;;5100657;28;20269;-94
2022/11/20 10:04:59;;;;;;;9.23;5.30;;;-0.40;99.90;;;;;;5116692;28;20233;-91
2022/11/20 10:07:35;;;;;;;8.07;4.97;;;-0.40;99.90;;;;;;5113173;28;20292;-92
2022/11/20 10:10:08;;;;;;;7.30;5.23;;;-0.40;99.90;;;;;;5113236;28;20237;-91
2022/11/20 10:12:58;;;;;;;7.67;5.33;;;-0.40;99.90;;;;;;5110807;28;20237;-91
2022/11/20 10:15:40;;;;;;;9.20;5.00;;;-0.40;99.90;;;;;;5114444;28;20212;-92
2022/11/20 10:18:20;;;;;;;8.47;5.00;;;-0.40;99.90;;;;;;5113610;28;20244;-93
2022/11/20 10:21:05;;;;;;;7.50;4.73;;;-0.40;99.90;;;;;;5108858;28;20229;-93
2022/11/20 10:24:10;;;;;;;9.23;5.37;;;-0.40;99.90;;;;;;5094134;28;20266;-91
2022/11/20 10:26:53;;;;;;;6.67;4.50;;;-0.30;99.90;;;;;;5092932;28;20289;-93
2022/11/20 10:29:31;;;;;;;6.87;4.87;;;-0.30;99.90;;;;;;5093056;28;20214;-91
2022/11/20 10:32:05;;;;;;;8.80;4.97;;;-0.30;99.90;;;;;;5096520;28;20289;-92
2022/11/20 10:34:45;;;;;;;7.50;4.40;;;-0.20;99.90;;;;;;5114638;28;20483;-92
2022/11/20 10:37:24;;;;;;;9.40;4.47;;;-0.20;99.90;;;;;;5113292;28;20210;-92
2022/11/20 10:40:01;;;;;;;7.93;4.20;;;-0.20;99.90;;;;;;5115984;28;20205;-93
2022/11/20 10:42:37;;;;;;;6.60;4.40;;;-0.20;99.90;;;;;;5115096;28;20291;-92
2022/11/20 10:45:20;;;;;;;8.23;4.73;;;-0.20;99.90;;;;;;5095133;28;20210;-93
2022/11/20 10:47:52;;;;;;;7.53;4.70;;;-0.20;99.90;;;;;;5093162;28;20528;-93
2022/11/20 10:50:24;;;;;;;5.57;4.50;;;-0.10;99.90;;;;;;5094669;28;20214;-92
2022/11/20 10:53:07;;;;;;;6.40;4.67;;;0.00;99.90;;;;;;5102347;28;20809;-91
2022/11/20 10:55:46;;;;;;;7.07;4.43;;;0.10;99.90;;;;;;5113016;28;20221;-91
2022/11/20 10:58:27;;;;;;;6.73;4.43;;;0.10;99.90;;;;;;5113255;28;20629;-91
2022/11/20 11:01:06;;;;;;;6.43;4.50;;;0.20;99.90;;;;;;5114176;28;20261;-93
2022/11/20 11:03:38;;;;;;;5.37;3.73;;;0.20;99.90;;;;;;5113189;28;20227;-92
2022/11/20 11:06:15;;;;;;;6.63;4.20;;;0.30;99.90;;;;;;5113255;28;20206;-92
2022/11/20 11:08:51;;;;;;;6.90;4.37;;;0.30;99.90;;;;;;5112899;28;20775;-92
2022/11/20 11:11:25;;;;;;;5.97;4.10;;;0.30;99.90;;;;;;5114824;28;20230;-93
2022/11/20 11:14:06;;;;;;;7.30;4.17;;;0.30;99.90;;;;;;5115633;28;20372;-91
2022/11/20 11:16:51;;;;;;;8.23;4.80;;;0.30;99.90;;;;;;5101109;28;20234;-92
2022/11/20 11:19:22;;;;;;;7.60;4.67;;;0.30;99.90;;;;;;5118591;28;20723;-92
2022/11/20 11:21:56;;;;;;;6.93;3.90;;;0.40;99.90;;;;;;5115978;28;20222;-93
2022/11/20 11:24:31;;;;;;;6.97;4.20;;;0.40;99.90;;;;;;5116168;28;20213;-92
2022/11/20 11:27:17;;;;;;;7.73;4.87;;;0.40;99.90;;;;;;5116367;28;20607;-93
2022/11/20 11:29:48;;;;;;;6.67;4.47;;;0.40;99.90;;;;;;5116158;28;20202;-91
2022/11/20 11:32:22;;;;;;;6.73;4.57;;;0.30;99.90;;;;;;5097492;28;20414;-94
2022/11/20 11:35:03;;;;;;;5.77;4.17;;;0.30;99.90;;;;;;5114121;28;20289;-93
2022/11/20 11:37:37;;;;;;;7.20;4.53;;;0.30;99.90;;;;;;5116312;28;20292;-94
2022/11/20 11:40:13;;;;;;;7.93;4.70;;;0.30;99.90;;;;;;5103286;28;20665;-93
2022/11/20 11:43:02;;;;;;;8.23;4.63;;;0.40;99.90;;;;;;5115009;28;20226;-92
2022/11/20 11:45:32;;;;;;;8.67;4.70;;;0.40;99.90;;;;;;5118576;27;20208;-92
2022/11/20 11:48:10;;;;;;;7.50;4.53;;;0.40;99.90;;;;;;5136621;27;20199;-90
2022/11/20 11:50:51;;;;;;;7.40;4.67;;;0.40;99.90;;;;;;5132157;27;20205;-91
2022/11/20 11:53:26;;;;;;;9.77;4.93;;;0.50;99.90;;;;;;5115815;28;20289;-91
2022/11/20 11:56:05;;;;;;;8.60;5.03;;;0.50;99.90;;;;;;5118480;27;20194;-91
2022/11/20 11:58:45;;;;;;;8.33;5.07;;;0.60;99.90;;;;;;5116694;28;20208;-91
2022/11/20 12:01:26;;;;;;;8.40;4.77;;;0.70;99.90;;;;;;5118251;27;20240;-90
2022/11/20 12:04:06;;;;;;;11.07;5.40;;;0.70;99.90;;;;;;5117636;28;20206;-91
2022/11/20 12:06:41;;;;;;;8.10;5.10;;;0.80;99.90;;;;;;5120621;28;20203;-92
2022/11/20 12:09:14;;;;;;;8.83;5.53;;;0.80;99.90;;;;;;5118764;28;20202;-93
2022/11/20 12:11:52;;;;;;;9.33;5.30;;;0.90;99.90;;;;;;5135076;27;20785;-92
2022/11/20 12:14:29;;;;;;;8.23;5.40;;;0.90;99.90;;;;;;5135037;27;20282;-92
2022/11/20 12:17:00;;;;;;;6.43;4.70;;;1.00;99.90;;;;;;5131023;28;20201;-92
2022/11/20 12:19:33;;;;;;;7.00;5.23;;;1.00;99.90;;;;;;5120621;28;20293;-93
2022/11/20 12:22:15;;;;;;;8.13;5.33;;;1.00;99.90;;;;;;5114844;28;20261;-92
2022/11/20 12:24:57;;;;;;;7.20;4.97;;;1.00;99.90;;;;;;5115385;28;20241;-92
2022/11/20 12:27:44;;;;;;;7.57;5.00;;;1.00;99.90;;;;;;5115625;28;20623;-90
2022/11/20 12:30:17;;;;;;;7.90;5.50;;;1.00;99.90;;;;;;5114712;28;20203;-91
2022/11/20 12:33:22;;;;;;;8.00;4.93;;;1.00;99.90;;;;;;5114292;28;20251;-92
2022/11/20 12:36:09;;;;;;;8.67;4.60;;;1.00;99.90;;;;;;5115477;28;20198;-91
2022/11/20 12:39:15;;;;;;;6.87;4.93;;;1.00;99.90;;;;;;5114360;28;20575;-91
2022/11/20 12:45:29;;;;;;;7.80;5.13;;;1.20;99.90;;;;;;5114373;28;20245;-91
2022/11/20 12:48:20;;;;;;;6.43;4.60;;;1.20;99.90;;;;;;5114532;28;20251;-92
2022/11/20 12:51:05;;;;;;;6.53;4.57;;;1.30;99.90;;;;;;5114155;28;20211;-91
2022/11/20 12:53:57;;;;;;;6.20;4.93;;;1.30;99.90;;;;;;5111131;28;20206;-92
2022/11/20 12:56:39;;;;;;;7.57;4.40;;;1.40;99.90;;;;;;5103044;28;20241;-91
2022/11/20 12:59:26;;;;;;;5.57;4.07;;;1.30;99.90;;;;;;5114377;28;20678;-92
2022/11/20 13:02:13;;;;;;;5.27;4.00;;;1.40;99.90;;;;;;5095725;28;20672;-92
2022/11/20 13:05:09;;;;;;;8.80;4.90;;;1.30;99.90;;;;;;5114339;28;20301;-91
2022/11/20 13:07:42;;;;;;;6.90;4.90;;;1.40;99.90;;;;;;5115081;28;20287;-91
2022/11/20 13:10:22;;;;;;;7.93;4.13;;;1.40;99.90;;;;;;5115412;28;20728;-91
2022/11/20 13:12:59;;;;;;;6.20;4.70;;;1.40;99.90;;;;;;5114955;28;20281;-92
2022/11/20 13:15:46;;;;;;;8.37;4.53;;;1.40;99.90;;;;;;5114198;28;20202;-92
2022/11/20 13:18:21;;;;;;;6.60;4.57;;;1.50;99.90;;;;;;5113034;28;20210;-91
2022/11/20 13:20:53;;;;;;;8.80;4.30;;;1.50;99.90;;;;;;5113838;28;20220;-91
2022/11/20 13:23:28;;;;;;;8.10;5.13;;;1.50;99.90;;;;;;5112758;28;20313;-91
2022/11/20 13:26:07;;;;;;;5.60;4.20;;;1.50;99.90;;;;;;5113657;28;20645;-92
2022/11/20 13:28:40;;;;;;;7.40;4.60;;;1.50;99.90;;;;;;5113191;28;20288;-91
2022/11/20 13:31:34;;;;;;;9.93;5.13;;;1.50;99.90;;;;;;5107196;28;20257;-91
2022/11/20 13:34:14;;;;;;;8.50;4.80;;;1.60;99.90;;;;;;5075041;28;20286;-92
2022/11/20 13:36:53;;;;;;;7.70;4.57;;;1.60;99.90;;;;;;5095703;28;20693;-91
2022/11/20 13:39:27;;;;;;;9.10;5.27;;;1.60;99.90;;;;;;5098219;28;20495;-92
2022/11/20 13:42:00;;;;;;;6.97;4.77;;;1.60;99.90;;;;;;5111449;28;20209;-92
2022/11/20 13:44:39;;;;;;;7.40;4.70;;;1.70;99.90;;;;;;5114907;28;20206;-92